sensor_id;sensor_type;location;lat;lon;timestamp;P1;durP1;ratioP1;P2;durP2;ratioP2
61407;SDS011;47274;43.054;25.146;2023-01-16T00:01:51;17.23;;;7.80;;
61407;SDS011;47274;43.054;25.146;2023-01-16T00:04:18;19.07;;;8.60;;
61407;SDS011;47274;43.054;25.146;2023-01-16T00:06:44;16.87;;;7.80;;
61407;SDS011;47274;43.054;25.146;2023-01-16T00:09:10;17.83;;;7.73;;
61407;SDS011;47274;43.054;25.146;2023-01-16T00:11:35;17.87;;;8.27;;
61407;SDS011;47274;43.054;25.146;2023-01-16T00:14:01;17.27;;;8.13;;
61407;SDS011;47274;43.054;25.146;2023-01-16T00:16:27;19.53;;;8.47;;
61407;SDS011;47274;43.054;25.146;2023-01-16T00:18:54;18.80;;;8.23;;
61407;SDS011;47274;43.054;25.146;2023-01-16T00:21:20;17.43;;;7.90;;
61407;SDS011;47274;43.054;25.146;2023-01-16T00:23:49;18.00;;;8.33;;
61407;SDS011;47274;43.054;25.146;2023-01-16T00:26:15;17.87;;;7.67;;
61407;SDS011;47274;43.054;25.146;2023-01-16T00:28:41;17.70;;;7.87;;
61407;SDS011;47274;43.054;25.146;2023-01-16T00:31:07;18.73;;;8.37;;
61407;SDS011;47274;43.054;25.146;2023-01-16T00:33:33;17.80;;;7.90;;
61407;SDS011;47274;43.054;25.146;2023-01-16T00:35:59;15.70;;;7.10;;
61407;SDS011;47274;43.054;25.146;2023-01-16T00:38:26;16.03;;;7.40;;
61407;SDS011;47274;43.054;25.146;2023-01-16T00:40:51;15.37;;;7.03;;
61407;SDS011;47274;43.054;25.146;2023-01-16T00:43:17;14.93;;;7.00;;
61407;SDS011;47274;43.054;25.146;2023-01-16T00:45:43;16.47;;;7.33;;
61407;SDS011;47274;43.054;25.146;2023-01-16T00:48:09;18.47;;;7.77;;
61407;SDS011;47274;43.054;25.146;2023-01-16T00:50:35;15.87;;;7.30;;
61407;SDS011;47274;43.054;25.146;2023-01-16T00:53:01;15.90;;;7.10;;
61407;SDS011;47274;43.054;25.146;2023-01-16T00:55:26;14.63;;;7.00;;
61407;SDS011;47274;43.054;25.146;2023-01-16T00:57:52;15.97;;;7.27;;
61407;SDS011;47274;43.054;25.146;2023-01-16T01:00:18;14.17;;;6.47;;
61407;SDS011;47274;43.054;25.146;2023-01-16T01:02:49;14.00;;;6.60;;
61407;SDS011;47274;43.054;25.146;2023-01-16T01:05:16;15.00;;;6.93;;
61407;SDS011;47274;43.054;25.146;2023-01-16T01:07:42;14.47;;;6.53;;
61407;SDS011;47274;43.054;25.146;2023-01-16T01:10:08;13.20;;;6.50;;
61407;SDS011;47274;43.054;25.146;2023-01-16T01:12:35;14.07;;;6.30;;
61407;SDS011;47274;43.054;25.146;2023-01-16T01:15:01;12.73;;;6.00;;
61407;SDS011;47274;43.054;25.146;2023-01-16T01:17:27;10.17;;;5.40;;
61407;SDS011;47274;43.054;25.146;2023-01-16T01:19:52;12.00;;;5.60;;
61407;SDS011;47274;43.054;25.146;2023-01-16T01:22:18;11.63;;;5.60;;
61407;SDS011;47274;43.054;25.146;2023-01-16T01:24:48;11.03;;;5.47;;
61407;SDS011;47274;43.054;25.146;2023-01-16T01:27:15;9.63;;;5.13;;
61407;SDS011;47274;43.054;25.146;2023-01-16T01:29:41;11.27;;;5.47;;
61407;SDS011;47274;43.054;25.146;2023-01-16T01:32:08;10.83;;;5.17;;
61407;SDS011;47274;43.054;25.146;2023-01-16T01:34:34;11.00;;;5.63;;
61407;SDS011;47274;43.054;25.146;2023-01-16T01:37:01;9.37;;;4.80;;
61407;SDS011;47274;43.054;25.146;2023-01-16T01:39:27;11.07;;;5.30;;
61407;SDS011;47274;43.054;25.146;2023-01-16T01:41:53;11.93;;;5.10;;
61407;SDS011;47274;43.054;25.146;2023-01-16T01:44:47;8.37;;;4.80;;
61407;SDS011;47274;43.054;25.146;2023-01-16T01:47:17;10.93;;;5.10;;
61407;SDS011;47274;43.054;25.146;2023-01-16T01:49:47;9.33;;;4.50;;
61407;SDS011;47274;43.054;25.146;2023-01-16T01:52:14;10.20;;;4.83;;
61407;SDS011;47274;43.054;25.146;2023-01-16T01:54:47;7.97;;;4.97;;
61407;SDS011;47274;43.054;25.146;2023-01-16T01:57:21;9.40;;;5.00;;
61407;SDS011;47274;43.054;25.146;2023-01-16T02:02:37;8.53;;;4.13;;
61407;SDS011;47274;43.054;25.146;2023-01-16T02:05:07;10.10;;;4.87;;
61407;SDS011;47274;43.054;25.146;2023-01-16T02:07:35;10.00;;;4.47;;
61407;SDS011;47274;43.054;25.146;2023-01-16T02:10:10;7.50;;;4.13;;
61407;SDS011;47274;43.054;25.146;2023-01-16T02:12:38;8.77;;;5.00;;
61407;SDS011;47274;43.054;25.146;2023-01-16T02:15:05;11.23;;;5.23;;
61407;SDS011;47274;43.054;25.146;2023-01-16T02:17:31;8.70;;;4.80;;
61407;SDS011;47274;43.054;25.146;2023-01-16T02:20:21;9.00;;;4.90;;
61407;SDS011;47274;43.054;25.146;2023-01-16T02:36:29;9.87;;;5.03;;
61407;SDS011;47274;43.054;25.146;2023-01-16T02:39:26;14.13;;;6.20;;
61407;SDS011;47274;43.054;25.146;2023-01-16T02:47:17;10.53;;;5.23;;
61407;SDS011;47274;43.054;25.146;2023-01-16T02:52:57;14.67;;;6.40;;
61407;SDS011;47274;43.054;25.146;2023-01-16T02:55:36;13.23;;;6.17;;
61407;SDS011;47274;43.054;25.146;2023-01-16T02:58:06;11.80;;;5.70;;
61407;SDS011;47274;43.054;25.146;2023-01-16T03:00:34;14.33;;;6.27;;
61407;SDS011;47274;43.054;25.146;2023-01-16T03:03:00;15.37;;;6.70;;
61407;SDS011;47274;43.054;25.146;2023-01-16T03:05:26;15.43;;;6.53;;
61407;SDS011;47274;43.054;25.146;2023-01-16T03:08:19;16.10;;;6.90;;
61407;SDS011;47274;43.054;25.146;2023-01-16T03:13:49;15.00;;;6.93;;
61407;SDS011;47274;43.054;25.146;2023-01-16T03:16:38;14.03;;;6.40;;
61407;SDS011;47274;43.054;25.146;2023-01-16T03:19:08;16.67;;;7.40;;
61407;SDS011;47274;43.054;25.146;2023-01-16T03:24:55;17.37;;;7.43;;
61407;SDS011;47274;43.054;25.146;2023-01-16T03:30:49;17.20;;;7.90;;
61407;SDS011;47274;43.054;25.146;2023-01-16T03:36:25;15.97;;;7.10;;
61407;SDS011;47274;43.054;25.146;2023-01-16T03:38:58;17.87;;;7.77;;
61407;SDS011;47274;43.054;25.146;2023-01-16T03:41:26;18.53;;;7.77;;
61407;SDS011;47274;43.054;25.146;2023-01-16T03:43:58;17.57;;;7.77;;
61407;SDS011;47274;43.054;25.146;2023-01-16T03:46:31;17.63;;;7.60;;
61407;SDS011;47274;43.054;25.146;2023-01-16T03:49:04;18.50;;;7.93;;
61407;SDS011;47274;43.054;25.146;2023-01-16T03:51:53;17.98;;;8.07;;
61407;SDS011;47274;43.054;25.146;2023-01-16T03:57:21;15.80;;;7.53;;
61407;SDS011;47274;43.054;25.146;2023-01-16T03:59:51;16.48;;;7.00;;
61407;SDS011;47274;43.054;25.146;2023-01-16T04:02:19;16.73;;;7.07;;
61407;SDS011;47274;43.054;25.146;2023-01-16T04:04:57;16.20;;;7.00;;
61407;SDS011;47274;43.054;25.146;2023-01-16T04:10:02;14.37;;;6.47;;
61407;SDS011;47274;43.054;25.146;2023-01-16T04:13:14;12.93;;;6.00;;
61407;SDS011;47274;43.054;25.146;2023-01-16T04:15:23;15.10;;;6.73;;
61407;SDS011;47274;43.054;25.146;2023-01-16T04:17:52;14.67;;;6.97;;
61407;SDS011;47274;43.054;25.146;2023-01-16T04:20:19;14.93;;;6.70;;
61407;SDS011;47274;43.054;25.146;2023-01-16T04:22:48;16.10;;;7.20;;
61407;SDS011;47274;43.054;25.146;2023-01-16T04:25:15;18.40;;;7.60;;
61407;SDS011;47274;43.054;25.146;2023-01-16T04:27:42;16.47;;;7.37;;
61407;SDS011;47274;43.054;25.146;2023-01-16T04:30:08;17.23;;;7.50;;
61407;SDS011;47274;43.054;25.146;2023-01-16T04:32:34;17.67;;;7.63;;
61407;SDS011;47274;43.054;25.146;2023-01-16T04:35:03;16.27;;;7.37;;
61407;SDS011;47274;43.054;25.146;2023-01-16T04:37:29;17.87;;;7.87;;
61407;SDS011;47274;43.054;25.146;2023-01-16T04:39:55;16.13;;;7.40;;
61407;SDS011;47274;43.054;25.146;2023-01-16T04:42:21;17.67;;;7.90;;
61407;SDS011;47274;43.054;25.146;2023-01-16T04:44:47;17.27;;;7.63;;
61407;SDS011;47274;43.054;25.146;2023-01-16T04:47:12;14.37;;;6.80;;
61407;SDS011;47274;43.054;25.146;2023-01-16T04:49:38;15.13;;;7.23;;
61407;SDS011;47274;43.054;25.146;2023-01-16T04:52:04;15.87;;;7.07;;
61407;SDS011;47274;43.054;25.146;2023-01-16T04:54:30;13.77;;;6.27;;
61407;SDS011;47274;43.054;25.146;2023-01-16T04:56:56;13.33;;;6.07;;
61407;SDS011;47274;43.054;25.146;2023-01-16T04:59:22;14.10;;;6.50;;
61407;SDS011;47274;43.054;25.146;2023-01-16T05:01:49;13.47;;;6.20;;
61407;SDS011;47274;43.054;25.146;2023-01-16T05:04:15;14.37;;;6.73;;
61407;SDS011;47274;43.054;25.146;2023-01-16T05:06:41;13.07;;;6.27;;
61407;SDS011;47274;43.054;25.146;2023-01-16T05:09:08;14.63;;;6.53;;
61407;SDS011;47274;43.054;25.146;2023-01-16T05:11:34;14.60;;;6.63;;
61407;SDS011;47274;43.054;25.146;2023-01-16T05:14:02;15.23;;;6.30;;
61407;SDS011;47274;43.054;25.146;2023-01-16T05:16:30;15.53;;;6.77;;
61407;SDS011;47274;43.054;25.146;2023-01-16T05:18:56;14.23;;;6.23;;
61407;SDS011;47274;43.054;25.146;2023-01-16T05:21:22;15.20;;;6.23;;
61407;SDS011;47274;43.054;25.146;2023-01-16T05:23:49;15.03;;;6.83;;
61407;SDS011;47274;43.054;25.146;2023-01-16T05:26:16;15.93;;;6.43;;
61407;SDS011;47274;43.054;25.146;2023-01-16T05:28:42;15.07;;;7.00;;
61407;SDS011;47274;43.054;25.146;2023-01-16T05:31:08;16.80;;;7.10;;
61407;SDS011;47274;43.054;25.146;2023-01-16T05:33:33;16.07;;;7.10;;
61407;SDS011;47274;43.054;25.146;2023-01-16T05:35:59;17.33;;;7.73;;
61407;SDS011;47274;43.054;25.146;2023-01-16T05:38:25;16.00;;;7.17;;
61407;SDS011;47274;43.054;25.146;2023-01-16T05:40:51;14.70;;;6.80;;
61407;SDS011;47274;43.054;25.146;2023-01-16T05:43:17;17.97;;;7.27;;
61407;SDS011;47274;43.054;25.146;2023-01-16T05:45:45;18.03;;;7.60;;
61407;SDS011;47274;43.054;25.146;2023-01-16T05:48:11;16.30;;;7.07;;
61407;SDS011;47274;43.054;25.146;2023-01-16T05:50:38;21.93;;;7.60;;
61407;SDS011;47274;43.054;25.146;2023-01-16T05:53:04;17.00;;;7.20;;
61407;SDS011;47274;43.054;25.146;2023-01-16T05:55:29;17.03;;;7.37;;
61407;SDS011;47274;43.054;25.146;2023-01-16T05:57:56;18.47;;;7.67;;
61407;SDS011;47274;43.054;25.146;2023-01-16T06:00:22;18.20;;;7.77;;
61407;SDS011;47274;43.054;25.146;2023-01-16T06:02:48;17.73;;;7.27;;
61407;SDS011;47274;43.054;25.146;2023-01-16T06:05:14;17.27;;;7.70;;
61407;SDS011;47274;43.054;25.146;2023-01-16T06:07:40;17.53;;;7.90;;
61407;SDS011;47274;43.054;25.146;2023-01-16T06:10:07;16.07;;;7.23;;
61407;SDS011;47274;43.054;25.146;2023-01-16T06:12:35;17.47;;;7.70;;
61407;SDS011;47274;43.054;25.146;2023-01-16T06:15:01;18.93;;;8.43;;
61407;SDS011;47274;43.054;25.146;2023-01-16T06:17:26;18.27;;;7.97;;
61407;SDS011;47274;43.054;25.146;2023-01-16T06:19:52;17.40;;;7.40;;
61407;SDS011;47274;43.054;25.146;2023-01-16T06:22:18;17.10;;;8.00;;
61407;SDS011;47274;43.054;25.146;2023-01-16T06:24:44;19.03;;;7.40;;
61407;SDS011;47274;43.054;25.146;2023-01-16T06:27:11;16.07;;;7.40;;
61407;SDS011;47274;43.054;25.146;2023-01-16T06:29:37;17.47;;;7.50;;
61407;SDS011;47274;43.054;25.146;2023-01-16T06:32:04;16.93;;;7.53;;
61407;SDS011;47274;43.054;25.146;2023-01-16T06:34:30;16.90;;;7.80;;
61407;SDS011;47274;43.054;25.146;2023-01-16T06:36:57;16.73;;;7.70;;
61407;SDS011;47274;43.054;25.146;2023-01-16T06:39:23;15.77;;;7.40;;
61407;SDS011;47274;43.054;25.146;2023-01-16T06:41:49;15.40;;;7.10;;
61407;SDS011;47274;43.054;25.146;2023-01-16T06:44:15;14.73;;;6.90;;
61407;SDS011;47274;43.054;25.146;2023-01-16T06:46:41;14.47;;;6.53;;
61407;SDS011;47274;43.054;25.146;2023-01-16T06:49:06;16.73;;;6.97;;
61407;SDS011;47274;43.054;25.146;2023-01-16T06:51:32;17.77;;;7.47;;
61407;SDS011;47274;43.054;25.146;2023-01-16T06:53:58;15.37;;;6.80;;
61407;SDS011;47274;43.054;25.146;2023-01-16T06:56:24;18.73;;;8.03;;
61407;SDS011;47274;43.054;25.146;2023-01-16T06:58:50;16.00;;;7.40;;
61407;SDS011;47274;43.054;25.146;2023-01-16T07:01:16;17.13;;;7.30;;
61407;SDS011;47274;43.054;25.146;2023-01-16T07:03:41;16.03;;;6.97;;
61407;SDS011;47274;43.054;25.146;2023-01-16T07:06:07;13.80;;;6.73;;
61407;SDS011;47274;43.054;25.146;2023-01-16T07:08:33;16.33;;;7.03;;
61407;SDS011;47274;43.054;25.146;2023-01-16T07:10:59;13.07;;;6.33;;
61407;SDS011;47274;43.054;25.146;2023-01-16T07:13:26;14.93;;;6.50;;
61407;SDS011;47274;43.054;25.146;2023-01-16T07:15:54;16.00;;;6.57;;
61407;SDS011;47274;43.054;25.146;2023-01-16T07:18:39;23.50;;;11.00;;
61407;SDS011;47274;43.054;25.146;2023-01-16T07:21:34;23.47;;;10.17;;
61407;SDS011;47274;43.054;25.146;2023-01-16T07:24:23;18.73;;;8.17;;
61407;SDS011;47274;43.054;25.146;2023-01-16T07:26:55;17.75;;;8.27;;
61407;SDS011;47274;43.054;25.146;2023-01-16T07:29:24;16.92;;;7.95;;
61407;SDS011;47274;43.054;25.146;2023-01-16T07:31:51;16.48;;;7.10;;
61407;SDS011;47274;43.054;25.146;2023-01-16T07:34:18;18.60;;;9.43;;
61407;SDS011;47274;43.054;25.146;2023-01-16T07:36:46;18.80;;;8.20;;
61407;SDS011;47274;43.054;25.146;2023-01-16T07:39:12;18.30;;;8.88;;
61407;SDS011;47274;43.054;25.146;2023-01-16T07:41:42;16.50;;;7.55;;
61407;SDS011;47274;43.054;25.146;2023-01-16T07:44:11;17.20;;;7.78;;
61407;SDS011;47274;43.054;25.146;2023-01-16T07:46:36;16.23;;;7.32;;
61407;SDS011;47274;43.054;25.146;2023-01-16T07:49:03;16.75;;;7.00;;
61407;SDS011;47274;43.054;25.146;2023-01-16T07:51:31;15.13;;;6.83;;
61407;SDS011;47274;43.054;25.146;2023-01-16T07:53:57;17.03;;;7.60;;
61407;SDS011;47274;43.054;25.146;2023-01-16T07:56:22;18.23;;;7.13;;
61407;SDS011;47274;43.054;25.146;2023-01-16T07:58:48;16.90;;;7.35;;
61407;SDS011;47274;43.054;25.146;2023-01-16T08:01:16;16.45;;;7.20;;
61407;SDS011;47274;43.054;25.146;2023-01-16T08:03:42;16.80;;;7.15;;
61407;SDS011;47274;43.054;25.146;2023-01-16T08:06:09;17.58;;;7.35;;
61407;SDS011;47274;43.054;25.146;2023-01-16T08:08:37;15.80;;;6.63;;
61407;SDS011;47274;43.054;25.146;2023-01-16T08:11:03;16.15;;;6.88;;
61407;SDS011;47274;43.054;25.146;2023-01-16T08:13:48;16.45;;;7.15;;
61407;SDS011;47274;43.054;25.146;2023-01-16T08:16:14;18.73;;;7.65;;
61407;SDS011;47274;43.054;25.146;2023-01-16T08:18:40;16.13;;;7.20;;
61407;SDS011;47274;43.054;25.146;2023-01-16T08:21:06;17.60;;;7.90;;
61407;SDS011;47274;43.054;25.146;2023-01-16T08:23:32;15.55;;;6.75;;
61407;SDS011;47274;43.054;25.146;2023-01-16T08:25:58;15.43;;;7.10;;
61407;SDS011;47274;43.054;25.146;2023-01-16T08:28:25;14.32;;;6.28;;
61407;SDS011;47274;43.054;25.146;2023-01-16T08:30:52;14.57;;;6.80;;
61407;SDS011;47274;43.054;25.146;2023-01-16T08:33:18;16.17;;;7.40;;
61407;SDS011;47274;43.054;25.146;2023-01-16T08:35:44;16.77;;;7.20;;
61407;SDS011;47274;43.054;25.146;2023-01-16T08:38:10;17.90;;;7.95;;
61407;SDS011;47274;43.054;25.146;2023-01-16T08:40:36;15.23;;;7.15;;
61407;SDS011;47274;43.054;25.146;2023-01-16T08:43:01;12.40;;;5.68;;
61407;SDS011;47274;43.054;25.146;2023-01-16T08:45:45;12.88;;;5.72;;
61407;SDS011;47274;43.054;25.146;2023-01-16T08:48:30;11.20;;;5.75;;
61407;SDS011;47274;43.054;25.146;2023-01-16T08:51:18;11.73;;;5.65;;
61407;SDS011;47274;43.054;25.146;2023-01-16T08:53:48;10.98;;;5.35;;
61407;SDS011;47274;43.054;25.146;2023-01-16T08:56:15;13.43;;;7.03;;
61407;SDS011;47274;43.054;25.146;2023-01-16T08:58:41;14.70;;;6.90;;
61407;SDS011;47274;43.054;25.146;2023-01-16T09:01:06;13.90;;;6.45;;
61407;SDS011;47274;43.054;25.146;2023-01-16T09:03:32;21.02;;;10.73;;
61407;SDS011;47274;43.054;25.146;2023-01-16T09:05:59;16.17;;;7.32;;
61407;SDS011;47274;43.054;25.146;2023-01-16T09:08:25;12.88;;;6.07;;
61407;SDS011;47274;43.054;25.146;2023-01-16T09:10:51;12.93;;;6.28;;
61407;SDS011;47274;43.054;25.146;2023-01-16T09:13:36;12.80;;;6.20;;
61407;SDS011;47274;43.054;25.146;2023-01-16T09:16:18;23.30;;;10.32;;
61407;SDS011;47274;43.054;25.146;2023-01-16T09:18:46;14.52;;;6.63;;
61407;SDS011;47274;43.054;25.146;2023-01-16T09:21:12;13.50;;;5.68;;
61407;SDS011;47274;43.054;25.146;2023-01-16T09:23:39;14.25;;;6.70;;
61407;SDS011;47274;43.054;25.146;2023-01-16T09:26:05;14.77;;;6.68;;
61407;SDS011;47274;43.054;25.146;2023-01-16T09:28:31;14.27;;;6.72;;
61407;SDS011;47274;43.054;25.146;2023-01-16T09:30:57;15.60;;;6.78;;
61407;SDS011;47274;43.054;25.146;2023-01-16T09:33:23;17.77;;;8.75;;
61407;SDS011;47274;43.054;25.146;2023-01-16T09:35:49;13.77;;;6.63;;
61407;SDS011;47274;43.054;25.146;2023-01-16T09:38:14;16.20;;;7.55;;
61407;SDS011;47274;43.054;25.146;2023-01-16T09:40:44;16.02;;;7.45;;
61407;SDS011;47274;43.054;25.146;2023-01-16T09:43:48;16.65;;;7.15;;
61407;SDS011;47274;43.054;25.146;2023-01-16T09:46:14;16.52;;;7.65;;
61407;SDS011;47274;43.054;25.146;2023-01-16T09:48:48;14.73;;;7.03;;
61407;SDS011;47274;43.054;25.146;2023-01-16T09:51:42;13.48;;;6.07;;
61407;SDS011;47274;43.054;25.146;2023-01-16T09:54:28;11.40;;;5.88;;
61407;SDS011;47274;43.054;25.146;2023-01-16T09:57:22;11.95;;;6.03;;
61407;SDS011;47274;43.054;25.146;2023-01-16T10:00:10;10.82;;;5.60;;
61407;SDS011;47274;43.054;25.146;2023-01-16T10:02:39;11.90;;;5.95;;
61407;SDS011;47274;43.054;25.146;2023-01-16T10:05:09;12.32;;;6.05;;
61407;SDS011;47274;43.054;25.146;2023-01-16T10:07:42;12.18;;;5.97;;
61407;SDS011;47274;43.054;25.146;2023-01-16T10:12:45;11.55;;;5.40;;
61407;SDS011;47274;43.054;25.146;2023-01-16T10:15:38;8.70;;;4.95;;
61407;SDS011;47274;43.054;25.146;2023-01-16T10:26:36;14.40;;;6.10;;
61407;SDS011;47274;43.054;25.146;2023-01-16T10:29:24;12.93;;;5.95;;
61407;SDS011;47274;43.054;25.146;2023-01-16T10:37:13;15.82;;;6.95;;
61407;SDS011;47274;43.054;25.146;2023-01-16T10:39:39;15.50;;;7.32;;
61407;SDS011;47274;43.054;25.146;2023-01-16T10:47:52;18.23;;;8.07;;
61407;SDS011;47274;43.054;25.146;2023-01-16T10:50:36;15.70;;;7.25;;
61407;SDS011;47274;43.054;25.146;2023-01-16T10:53:04;12.45;;;5.78;;
61407;SDS011;47274;43.054;25.146;2023-01-16T10:55:32;16.88;;;7.95;;
61407;SDS011;47274;43.054;25.146;2023-01-16T10:58:35;20.83;;;9.85;;
61407;SDS011;47274;43.054;25.146;2023-01-16T11:01:13;14.38;;;6.25;;
61407;SDS011;47274;43.054;25.146;2023-01-16T11:06:12;11.95;;;5.57;;
61407;SDS011;47274;43.054;25.146;2023-01-16T11:08:40;13.05;;;6.10;;
61407;SDS011;47274;43.054;25.146;2023-01-16T11:11:08;15.52;;;7.25;;
61407;SDS011;47274;43.054;25.146;2023-01-16T11:13:56;15.38;;;6.53;;
61407;SDS011;47274;43.054;25.146;2023-01-16T11:16:40;14.32;;;6.72;;
61407;SDS011;47274;43.054;25.146;2023-01-16T11:19:26;13.05;;;6.57;;
61407;SDS011;47274;43.054;25.146;2023-01-16T11:21:55;12.38;;;5.90;;
61407;SDS011;47274;43.054;25.146;2023-01-16T11:24:35;13.13;;;6.40;;
61407;SDS011;47274;43.054;25.146;2023-01-16T11:27:07;12.65;;;6.32;;
61407;SDS011;47274;43.054;25.146;2023-01-16T11:29:43;12.68;;;6.38;;
61407;SDS011;47274;43.054;25.146;2023-01-16T11:32:10;14.32;;;6.78;;
61407;SDS011;47274;43.054;25.146;2023-01-16T11:34:39;16.48;;;7.43;;
61407;SDS011;47274;43.054;25.146;2023-01-16T11:39:39;19.33;;;8.00;;
61407;SDS011;47274;43.054;25.146;2023-01-16T11:42:09;15.55;;;6.97;;
61407;SDS011;47274;43.054;25.146;2023-01-16T11:44:56;13.80;;;6.63;;
61407;SDS011;47274;43.054;25.146;2023-01-16T11:47:44;14.73;;;6.60;;
61407;SDS011;47274;43.054;25.146;2023-01-16T11:50:26;33.88;;;14.85;;
61407;SDS011;47274;43.054;25.146;2023-01-16T11:52:57;16.17;;;6.40;;
61407;SDS011;47274;43.054;25.146;2023-01-16T11:55:41;18.23;;;7.78;;
61407;SDS011;47274;43.054;25.146;2023-01-16T12:01:15;16.38;;;6.95;;
61407;SDS011;47274;43.054;25.146;2023-01-16T12:04:36;17.05;;;7.10;;
61407;SDS011;47274;43.054;25.146;2023-01-16T12:07:13;18.25;;;8.35;;
61407;SDS011;47274;43.054;25.146;2023-01-16T12:15:20;18.95;;;8.43;;
61407;SDS011;47274;43.054;25.146;2023-01-16T12:18:24;18.85;;;8.57;;
61407;SDS011;47274;43.054;25.146;2023-01-16T12:21:03;22.20;;;9.98;;
61407;SDS011;47274;43.054;25.146;2023-01-16T12:24:07;29.30;;;13.02;;
61407;SDS011;47274;43.054;25.146;2023-01-16T12:26:46;23.05;;;9.75;;
61407;SDS011;47274;43.054;25.146;2023-01-16T12:29:36;25.90;;;12.40;;
61407;SDS011;47274;43.054;25.146;2023-01-16T12:43:55;24.65;;;12.98;;
61407;SDS011;47274;43.054;25.146;2023-01-16T12:49:27;27.30;;;13.43;;
61407;SDS011;47274;43.054;25.146;2023-01-16T12:52:16;22.55;;;9.63;;
61407;SDS011;47274;43.054;25.146;2023-01-16T12:57:59;19.85;;;8.85;;
61407;SDS011;47274;43.054;25.146;2023-01-16T13:00:40;23.08;;;10.93;;
61407;SDS011;47274;43.054;25.146;2023-01-16T13:05:39;24.63;;;12.82;;
61407;SDS011;47274;43.054;25.146;2023-01-16T13:10:37;25.73;;;12.57;;
61407;SDS011;47274;43.054;25.146;2023-01-16T13:13:26;21.88;;;11.20;;
61407;SDS011;47274;43.054;25.146;2023-01-16T13:15:57;21.02;;;9.75;;
61407;SDS011;47274;43.054;25.146;2023-01-16T13:18:50;23.02;;;11.57;;
61407;SDS011;47274;43.054;25.146;2023-01-16T13:21:19;57.00;;;38.03;;
61407;SDS011;47274;43.054;25.146;2023-01-16T13:23:48;56.63;;;32.38;;
61407;SDS011;47274;43.054;25.146;2023-01-16T13:26:37;29.98;;;15.45;;
61407;SDS011;47274;43.054;25.146;2023-01-16T13:29:25;36.35;;;23.40;;
61407;SDS011;47274;43.054;25.146;2023-01-16T13:35:04;26.10;;;13.90;;
61407;SDS011;47274;43.054;25.146;2023-01-16T13:43:37;30.98;;;16.67;;
61407;SDS011;47274;43.054;25.146;2023-01-16T13:46:26;31.25;;;18.77;;
61407;SDS011;47274;43.054;25.146;2023-01-16T13:48:56;24.40;;;13.25;;
61407;SDS011;47274;43.054;25.146;2023-01-16T13:51:26;31.58;;;18.52;;
61407;SDS011;47274;43.054;25.146;2023-01-16T13:53:55;41.50;;;27.50;;
61407;SDS011;47274;43.054;25.146;2023-01-16T13:56:37;33.92;;;20.88;;
61407;SDS011;47274;43.054;25.146;2023-01-16T13:59:07;18.05;;;8.25;;
61407;SDS011;47274;43.054;25.146;2023-01-16T14:06:52;29.73;;;18.58;;
61407;SDS011;47274;43.054;25.146;2023-01-16T14:09:57;31.70;;;21.25;;
61407;SDS011;47274;43.054;25.146;2023-01-16T14:12:23;17.30;;;7.17;;
61407;SDS011;47274;43.054;25.146;2023-01-16T14:23:16;51.00;;;34.55;;
61407;SDS011;47274;43.054;25.146;2023-01-16T14:26:05;39.38;;;22.00;;
61407;SDS011;47274;43.054;25.146;2023-01-16T14:28:33;62.07;;;47.30;;
61407;SDS011;47274;43.054;25.146;2023-01-16T14:31:00;59.90;;;44.63;;
61407;SDS011;47274;43.054;25.146;2023-01-16T14:33:27;51.28;;;33.28;;
61407;SDS011;47274;43.054;25.146;2023-01-16T14:35:54;36.97;;;22.37;;
61407;SDS011;47274;43.054;25.146;2023-01-16T14:38:25;38.37;;;22.37;;
61407;SDS011;47274;43.054;25.146;2023-01-16T14:40:56;61.53;;;40.27;;
61407;SDS011;47274;43.054;25.146;2023-01-16T14:50:09;43.27;;;28.63;;
61407;SDS011;47274;43.054;25.146;2023-01-16T14:56:04;31.33;;;17.43;;
61407;SDS011;47274;43.054;25.146;2023-01-16T14:58:45;28.23;;;16.13;;
61407;SDS011;47274;43.054;25.146;2023-01-16T15:01:26;27.33;;;14.77;;
61407;SDS011;47274;43.054;25.146;2023-01-16T15:04:13;26.87;;;14.33;;
61407;SDS011;47274;43.054;25.146;2023-01-16T15:06:43;27.37;;;14.63;;
61407;SDS011;47274;43.054;25.146;2023-01-16T15:09:17;29.47;;;16.40;;
61407;SDS011;47274;43.054;25.146;2023-01-16T15:11:58;24.97;;;12.33;;
61407;SDS011;47274;43.054;25.146;2023-01-16T15:14:33;23.40;;;12.03;;
61407;SDS011;47274;43.054;25.146;2023-01-16T15:20:06;22.90;;;10.97;;
61407;SDS011;47274;43.054;25.146;2023-01-16T15:22:52;22.77;;;11.30;;
61407;SDS011;47274;43.054;25.146;2023-01-16T15:31:08;17.20;;;8.27;;
61407;SDS011;47274;43.054;25.146;2023-01-16T15:36:39;22.60;;;11.33;;
61407;SDS011;47274;43.054;25.146;2023-01-16T15:42:27;18.43;;;8.93;;
61407;SDS011;47274;43.054;25.146;2023-01-16T15:45:16;17.63;;;8.40;;
61407;SDS011;47274;43.054;25.146;2023-01-16T15:51:19;18.50;;;8.20;;
61407;SDS011;47274;43.054;25.146;2023-01-16T15:53:37;20.90;;;10.90;;
61407;SDS011;47274;43.054;25.146;2023-01-16T15:59:01;20.23;;;10.07;;
61407;SDS011;47274;43.054;25.146;2023-01-16T16:01:30;17.77;;;9.07;;
61407;SDS011;47274;43.054;25.146;2023-01-16T16:03:58;34.07;;;17.87;;
61407;SDS011;47274;43.054;25.146;2023-01-16T16:06:30;25.63;;;12.83;;
61407;SDS011;47274;43.054;25.146;2023-01-16T16:09:03;26.43;;;13.50;;
61407;SDS011;47274;43.054;25.146;2023-01-16T16:11:31;24.97;;;12.43;;
61407;SDS011;47274;43.054;25.146;2023-01-16T16:17:32;20.90;;;10.33;;
61407;SDS011;47274;43.054;25.146;2023-01-16T16:20:38;24.83;;;14.30;;
61407;SDS011;47274;43.054;25.146;2023-01-16T16:25:58;19.87;;;9.83;;
61407;SDS011;47274;43.054;25.146;2023-01-16T16:34:19;19.63;;;8.70;;
61407;SDS011;47274;43.054;25.146;2023-01-16T16:36:42;20.17;;;9.13;;
61407;SDS011;47274;43.054;25.146;2023-01-16T16:45:11;17.43;;;8.07;;
61407;SDS011;47274;43.054;25.146;2023-01-16T16:47:44;18.70;;;8.57;;
61407;SDS011;47274;43.054;25.146;2023-01-16T16:52:52;17.97;;;8.33;;
61407;SDS011;47274;43.054;25.146;2023-01-16T16:55:51;17.53;;;8.23;;
61407;SDS011;47274;43.054;25.146;2023-01-16T16:58:49;25.00;;;11.97;;
61407;SDS011;47274;43.054;25.146;2023-01-16T17:01:17;51.77;;;22.60;;
61407;SDS011;47274;43.054;25.146;2023-01-16T17:03:51;37.07;;;22.53;;
61407;SDS011;47274;43.054;25.146;2023-01-16T17:06:26;35.10;;;20.43;;
61407;SDS011;47274;43.054;25.146;2023-01-16T17:08:54;24.40;;;13.57;;
61407;SDS011;47274;43.054;25.146;2023-01-16T17:11:22;20.67;;;10.23;;
61407;SDS011;47274;43.054;25.146;2023-01-16T17:13:49;23.93;;;11.70;;
61407;SDS011;47274;43.054;25.146;2023-01-16T17:16:18;24.33;;;14.10;;
61407;SDS011;47274;43.054;25.146;2023-01-16T17:18:52;23.00;;;11.57;;
61407;SDS011;47274;43.054;25.146;2023-01-16T17:21:25;20.73;;;10.80;;
61407;SDS011;47274;43.054;25.146;2023-01-16T17:23:51;39.80;;;23.80;;
61407;SDS011;47274;43.054;25.146;2023-01-16T17:26:16;21.67;;;11.87;;
61407;SDS011;47274;43.054;25.146;2023-01-16T17:28:44;17.27;;;8.37;;
61407;SDS011;47274;43.054;25.146;2023-01-16T17:31:14;32.03;;;18.60;;
61407;SDS011;47274;43.054;25.146;2023-01-16T17:33:44;14.83;;;7.00;;
61407;SDS011;47274;43.054;25.146;2023-01-16T17:36:19;19.53;;;8.57;;
61407;SDS011;47274;43.054;25.146;2023-01-16T17:38:47;17.93;;;8.13;;
61407;SDS011;47274;43.054;25.146;2023-01-16T17:41:15;16.83;;;7.30;;